createdAt,value
2022-12-31T00:01:20.600Z,2.40
2022-12-31T00:03:34.177Z,2.40
2022-12-31T00:05:47.845Z,3.00
2022-12-31T00:08:01.852Z,1.50
2022-12-31T00:10:16.071Z,2.00
2022-12-31T00:12:29.693Z,2.90
2022-12-31T00:14:43.110Z,5.80
2022-12-31T00:16:57.793Z,3.80
2022-12-31T00:19:12.784Z,2.20
2022-12-31T00:21:26.930Z,3.60
2022-12-31T00:23:40.842Z,4.00
2022-12-31T00:25:54.518Z,4.80
2022-12-31T00:28:08.630Z,4.60
2022-12-31T00:30:22.734Z,4.80
2022-12-31T00:32:36.797Z,6.00
2022-12-31T00:34:50.683Z,4.60
2022-12-31T00:37:04.052Z,4.00
2022-12-31T00:39:18.688Z,4.70
2022-12-31T00:41:33.019Z,5.40
2022-12-31T00:43:46.902Z,4.90
2022-12-31T00:46:00.786Z,4.00
2022-12-31T00:48:14.549Z,3.80
2022-12-31T00:50:28.313Z,5.10
2022-12-31T00:52:41.960Z,5.10
2022-12-31T00:54:55.325Z,5.70
2022-12-31T00:57:08.856Z,5.40
2022-12-31T00:59:22.543Z,6.80
2022-12-31T01:01:38.129Z,9.00
2022-12-31T01:03:53.495Z,6.50
2022-12-31T01:06:07.390Z,6.60
2022-12-31T01:08:21.227Z,8.50
2022-12-31T01:10:51.831Z,9.00
2022-12-31T01:13:05.562Z,8.60
2022-12-31T01:15:19.510Z,8.50
2022-12-31T01:17:34.315Z,9.80
2022-12-31T01:19:47.744Z,10.50
2022-12-31T01:22:01.613Z,8.10
2022-12-31T01:24:16.211Z,10.70
2022-12-31T01:26:30.220Z,8.40
2022-12-31T01:28:44.112Z,7.80
2022-12-31T01:30:58.406Z,11.00
2022-12-31T01:33:14.920Z,16.20
2022-12-31T01:35:28.593Z,15.10
2022-12-31T01:37:42.214Z,16.80
2022-12-31T01:39:57.003Z,27.90
2022-12-31T01:42:13.877Z,11.30
2022-12-31T01:44:58.306Z,6.80
2022-12-31T01:47:17.012Z,7.90
2022-12-31T01:49:35.653Z,11.40
2022-12-31T01:51:52.160Z,11.50
2022-12-31T01:54:08.635Z,13.10
2022-12-31T01:56:25.421Z,20.30
2022-12-31T01:58:43.685Z,13.00
2022-12-31T02:00:58.600Z,10.60
2022-12-31T02:03:14.204Z,5.20
2022-12-31T02:05:32.953Z,6.60
2022-12-31T02:07:46.647Z,5.00
2022-12-31T02:10:00.453Z,4.20
2022-12-31T02:12:17.236Z,5.50
2022-12-31T02:14:33.554Z,8.10
2022-12-31T02:16:57.141Z,9.70
2022-12-31T02:19:26.729Z,13.70
2022-12-31T02:21:50.724Z,10.80
2022-12-31T02:24:29.810Z,12.80
2022-12-31T02:27:01.410Z,14.60
2022-12-31T02:29:43.669Z,12.70
2022-12-31T02:32:02.636Z,10.90
2022-12-31T02:34:22.542Z,9.10
2022-12-31T02:36:43.502Z,13.30
2022-12-31T02:38:58.511Z,12.00
2022-12-31T02:41:39.165Z,9.90
2022-12-31T02:43:54.672Z,12.30
2022-12-31T02:46:19.003Z,12.50
2022-12-31T02:48:51.422Z,11.20
2022-12-31T02:51:15.914Z,10.70
2022-12-31T02:53:41.649Z,13.50
2022-12-31T02:56:01.963Z,16.20
2022-12-31T02:58:45.149Z,15.60
2022-12-31T03:01:18.688Z,11.70
2022-12-31T03:03:33.469Z,13.40
2022-12-31T03:05:52.143Z,16.70
2022-12-31T03:08:05.857Z,12.30
2022-12-31T03:10:20.244Z,14.10
2022-12-31T03:12:49.704Z,18.00
2022-12-31T03:15:03.519Z,20.70
2022-12-31T03:17:18.028Z,12.10
2022-12-31T03:19:48.097Z,14.80
2022-12-31T03:22:18.087Z,13.40
2022-12-31T03:24:48.040Z,13.20
2022-12-31T03:27:01.497Z,11.50
2022-12-31T03:29:15.323Z,10.60
2022-12-31T03:31:29.183Z,14.60
2022-12-31T03:33:44.711Z,15.20
2022-12-31T03:35:59.060Z,11.60
2022-12-31T03:38:13.183Z,12.40
2022-12-31T03:40:29.551Z,11.10
2022-12-31T03:42:43.863Z,9.00
2022-12-31T03:44:57.689Z,5.40
2022-12-31T03:47:11.367Z,6.70
2022-12-31T03:49:24.903Z,4.70
2022-12-31T03:51:38.632Z,4.40
2022-12-31T03:53:54.177Z,5.20
2022-12-31T03:56:07.804Z,4.50
2022-12-31T03:58:21.536Z,3.70
2022-12-31T04:00:35.683Z,4.30
2022-12-31T04:02:49.412Z,4.90
2022-12-31T04:05:03.447Z,10.20
2022-12-31T04:07:17.034Z,6.90
2022-12-31T04:09:30.983Z,6.00
2022-12-31T04:11:44.886Z,4.80
2022-12-31T04:14:00.393Z,6.30
2022-12-31T04:16:14.077Z,3.90
2022-12-31T04:18:28.057Z,5.30
2022-12-31T04:20:42.070Z,7.30
2022-12-31T04:22:56.191Z,5.20
2022-12-31T04:25:12.402Z,3.80
2022-12-31T04:27:25.733Z,5.10
2022-12-31T04:29:39.836Z,4.10
2022-12-31T04:31:56.443Z,3.60
2022-12-31T04:34:10.820Z,5.50
2022-12-31T04:36:27.121Z,3.80
2022-12-31T04:38:41.411Z,3.60
2022-12-31T04:41:11.460Z,4.20
2022-12-31T04:43:24.856Z,3.60
2022-12-31T04:45:38.445Z,3.80
2022-12-31T04:47:52.292Z,5.00
2022-12-31T04:50:06.078Z,4.40
2022-12-31T04:52:19.859Z,5.60
2022-12-31T04:54:33.642Z,4.90
2022-12-31T04:56:47.542Z,7.20
2022-12-31T04:59:01.268Z,6.80
2022-12-31T05:01:15.773Z,5.70
2022-12-31T05:03:31.165Z,11.00
2022-12-31T05:05:46.955Z,13.20
2022-12-31T05:08:01.699Z,16.30
2022-12-31T05:10:16.153Z,19.90
2022-12-31T05:12:29.780Z,25.20
2022-12-31T05:14:43.497Z,22.90
2022-12-31T05:16:59.967Z,23.20
2022-12-31T05:19:13.553Z,24.00
2022-12-31T05:21:27.593Z,22.80
2022-12-31T05:23:41.217Z,17.50
2022-12-31T05:25:56.264Z,17.00
2022-12-31T05:28:10.129Z,16.40
2022-12-31T05:30:23.755Z,20.10
2022-12-31T05:32:38.063Z,16.70
2022-12-31T05:34:51.813Z,16.00
2022-12-31T05:37:05.705Z,16.00
2022-12-31T05:39:19.391Z,14.10
2022-12-31T05:41:32.839Z,13.50
2022-12-31T05:43:46.285Z,9.90
2022-12-31T05:46:00.254Z,13.70
2022-12-31T05:48:13.955Z,16.00
2022-12-31T05:50:27.762Z,14.00
2022-12-31T05:52:47.259Z,16.70
2022-12-31T05:55:01.401Z,15.90
2022-12-31T05:57:15.627Z,11.90
2022-12-31T05:59:29.603Z,7.40
2022-12-31T06:01:43.130Z,7.30
2022-12-31T06:03:56.778Z,10.50
2022-12-31T06:06:11.205Z,5.10
2022-12-31T06:08:25.182Z,5.10
2022-12-31T06:10:40.097Z,5.50
2022-12-31T06:12:54.366Z,12.80
2022-12-31T06:15:08.338Z,20.90
2022-12-31T06:17:21.880Z,14.50
2022-12-31T06:19:36.008Z,11.10
2022-12-31T06:21:49.752Z,9.70
2022-12-31T06:24:03.194Z,14.20
2022-12-31T06:26:17.074Z,11.40
2022-12-31T06:28:30.505Z,12.00
2022-12-31T06:30:44.434Z,17.50
2022-12-31T06:32:58.226Z,16.20
2022-12-31T06:35:12.762Z,10.00
2022-12-31T06:37:26.384Z,10.10
2022-12-31T06:39:40.040Z,8.80
2022-12-31T06:41:53.806Z,10.10
2022-12-31T06:44:07.275Z,10.10
2022-12-31T06:46:21.472Z,8.30
2022-12-31T06:48:35.224Z,6.70
2022-12-31T06:50:49.742Z,5.90
2022-12-31T06:53:03.150Z,7.00
2022-12-31T06:55:19.872Z,5.50
2022-12-31T06:57:35.030Z,4.70
2022-12-31T06:59:49.621Z,6.90
2022-12-31T07:02:20.959Z,8.70
2022-12-31T07:05:00.479Z,8.90
2022-12-31T07:07:20.536Z,6.40
2022-12-31T07:09:40.346Z,10.50
2022-12-31T07:12:07.785Z,10.20
2022-12-31T07:14:37.011Z,12.70
2022-12-31T07:17:04.111Z,13.50
2022-12-31T07:19:36.698Z,9.60
2022-12-31T07:24:02.563Z,15.20
2022-12-31T07:26:28.114Z,19.80
2022-12-31T07:28:52.355Z,17.70
2022-12-31T07:31:11.990Z,16.20
2022-12-31T07:33:39.531Z,18.90
2022-12-31T07:36:01.041Z,18.30
2022-12-31T07:38:21.915Z,14.80
2022-12-31T07:40:41.482Z,17.20
2022-12-31T07:43:10.757Z,14.70
2022-12-31T07:45:30.741Z,21.30
2022-12-31T07:47:45.871Z,20.70
2022-12-31T07:50:00.675Z,18.80
2022-12-31T07:52:15.417Z,18.70
2022-12-31T07:54:29.190Z,9.60
2022-12-31T07:56:42.581Z,16.00
2022-12-31T07:59:08.201Z,15.10
2022-12-31T08:01:26.457Z,17.30
2022-12-31T08:03:54.879Z,16.00
2022-12-31T08:06:18.952Z,15.80
2022-12-31T08:08:48.017Z,12.40
2022-12-31T08:11:13.149Z,16.80
2022-12-31T08:13:27.569Z,13.90
2022-12-31T08:15:44.273Z,10.40
2022-12-31T08:17:58.613Z,11.10
2022-12-31T08:20:15.801Z,14.20
2022-12-31T08:23:04.339Z,12.60
2022-12-31T08:25:27.245Z,14.10
2022-12-31T08:27:51.326Z,12.80
2022-12-31T08:30:12.313Z,10.30
2022-12-31T08:32:30.366Z,10.50
2022-12-31T08:34:52.690Z,6.20
2022-12-31T08:37:10.290Z,9.10
2022-12-31T08:39:37.382Z,7.40
2022-12-31T08:41:54.521Z,7.10
2022-12-31T08:44:19.811Z,11.70
2022-12-31T08:46:37.981Z,11.80
2022-12-31T08:48:52.331Z,12.90
2022-12-31T08:51:06.419Z,15.70
2022-12-31T08:53:21.704Z,13.00
2022-12-31T08:55:36.546Z,14.30
2022-12-31T08:58:07.401Z,17.10
2022-12-31T09:00:24.018Z,17.90
2022-12-31T09:02:55.485Z,11.90
2022-12-31T09:05:19.553Z,13.40
2022-12-31T09:07:40.905Z,15.60
2022-12-31T09:10:02.842Z,13.00
2022-12-31T09:12:26.528Z,10.60
2022-12-31T09:14:48.523Z,10.20
2022-12-31T09:17:08.266Z,7.60
2022-12-31T09:19:21.677Z,10.50
2022-12-31T09:21:36.102Z,14.30
2022-12-31T09:23:50.599Z,10.70
2022-12-31T09:26:16.876Z,14.30
2022-12-31T09:28:41.875Z,13.70
2022-12-31T09:31:02.540Z,14.80
2022-12-31T09:33:21.822Z,10.30
2022-12-31T09:35:42.626Z,9.40
2022-12-31T09:38:00.250Z,10.20
2022-12-31T09:40:37.432Z,7.50
2022-12-31T09:43:15.786Z,8.80
2022-12-31T09:45:54.412Z,9.80
2022-12-31T09:48:29.471Z,12.80
2022-12-31T09:51:01.125Z,11.80
2022-12-31T09:53:47.955Z,13.60
2022-12-31T09:56:07.596Z,10.40
2022-12-31T09:58:35.963Z,13.70
2022-12-31T10:00:55.814Z,22.00
2022-12-31T10:03:33.775Z,15.30
2022-12-31T10:06:02.961Z,17.20
2022-12-31T10:08:30.200Z,14.30
2022-12-31T10:10:52.128Z,14.20
2022-12-31T10:13:33.316Z,17.40
2022-12-31T10:16:35.273Z,15.40
2022-12-31T10:19:08.348Z,11.50
2022-12-31T10:24:08.891Z,13.40
2022-12-31T10:26:52.945Z,12.10
2022-12-31T10:29:33.268Z,10.60
2022-12-31T10:31:58.784Z,12.90
2022-12-31T10:34:25.470Z,10.50
2022-12-31T10:36:59.343Z,12.50
2022-12-31T10:39:24.210Z,11.30
2022-12-31T10:42:23.173Z,11.40
2022-12-31T10:45:19.725Z,13.00
2022-12-31T10:48:10.626Z,8.00
2022-12-31T10:50:48.277Z,13.70
2022-12-31T10:53:25.437Z,11.00
2022-12-31T10:56:03.066Z,10.00
2022-12-31T10:58:45.342Z,12.40
2022-12-31T11:01:08.666Z,9.60
2022-12-31T11:03:55.269Z,8.10
2022-12-31T11:06:50.692Z,8.60
2022-12-31T11:09:48.457Z,10.00
2022-12-31T11:12:08.790Z,7.80
2022-12-31T11:15:01.951Z,7.90
2022-12-31T11:17:40.156Z,7.50
2022-12-31T11:20:06.097Z,9.80
2022-12-31T11:22:37.290Z,7.00
2022-12-31T11:25:09.860Z,7.40
2022-12-31T11:27:49.268Z,8.90
2022-12-31T11:30:17.563Z,12.40
2022-12-31T11:32:47.685Z,9.70
2022-12-31T11:35:24.859Z,13.30
2022-12-31T11:37:48.232Z,21.60
2022-12-31T11:40:19.158Z,23.10
2022-12-31T11:42:44.380Z,20.80
2022-12-31T11:45:03.094Z,19.60
2022-12-31T11:48:03.905Z,21.40
2022-12-31T11:50:30.777Z,18.10
2022-12-31T11:53:17.268Z,23.40
2022-12-31T11:55:44.436Z,16.80
2022-12-31T11:58:02.772Z,18.70
2022-12-31T12:00:24.917Z,14.90
2022-12-31T12:03:05.736Z,19.30
2022-12-31T12:05:23.289Z,20.50
2022-12-31T12:07:38.074Z,20.20
2022-12-31T12:09:53.456Z,13.80
2022-12-31T12:12:09.197Z,19.60
2022-12-31T12:14:37.732Z,21.70
2022-12-31T12:17:00.894Z,18.80
2022-12-31T12:19:24.406Z,19.10
2022-12-31T12:21:38.206Z,21.00
2022-12-31T12:24:03.294Z,16.30
2022-12-31T12:26:33.717Z,13.70
2022-12-31T12:28:51.605Z,14.30
2022-12-31T12:31:06.885Z,4.90
2022-12-31T12:33:23.496Z,5.50
2022-12-31T12:35:40.651Z,6.50
2022-12-31T12:38:05.663Z,10.60
2022-12-31T12:40:33.762Z,11.20
2022-12-31T12:42:56.599Z,8.40
2022-12-31T12:45:18.316Z,8.90
2022-12-31T12:47:32.606Z,9.10
2022-12-31T12:49:49.562Z,7.50
2022-12-31T12:52:29.794Z,8.80
2022-12-31T12:54:57.001Z,10.10
2022-12-31T12:57:19.492Z,11.60
2022-12-31T13:00:00.288Z,11.10
2022-12-31T13:02:29.593Z,13.30
2022-12-31T13:04:57.586Z,12.00
2022-12-31T13:07:26.667Z,10.40
2022-12-31T13:09:58.584Z,9.40
2022-12-31T13:12:23.069Z,9.70
2022-12-31T13:14:44.387Z,13.80
2022-12-31T13:17:02.938Z,16.90
2022-12-31T13:19:23.697Z,17.30
2022-12-31T13:21:58.852Z,18.20
2022-12-31T13:24:22.104Z,19.00
2022-12-31T13:26:42.801Z,15.00
2022-12-31T13:28:59.552Z,15.80
2022-12-31T13:31:15.702Z,14.00
2022-12-31T13:33:34.861Z,16.70
2022-12-31T13:35:52.484Z,14.70
2022-12-31T13:38:10.050Z,13.80
2022-12-31T13:40:30.981Z,14.90
2022-12-31T13:42:51.831Z,16.40
2022-12-31T13:45:09.727Z,16.80
2022-12-31T13:47:32.759Z,17.00
2022-12-31T13:49:52.172Z,22.30
2022-12-31T13:52:17.783Z,24.00
2022-12-31T13:54:39.943Z,22.90
2022-12-31T13:56:56.222Z,22.20
2022-12-31T13:59:18.715Z,18.00
2022-12-31T14:03:58.086Z,20.40
2022-12-31T14:06:18.936Z,18.00
2022-12-31T14:08:32.541Z,22.60
2022-12-31T14:11:00.610Z,18.80
2022-12-31T14:13:41.055Z,12.90
2022-12-31T14:16:04.699Z,16.50
2022-12-31T14:18:24.248Z,23.00
2022-12-31T14:20:45.891Z,22.10
2022-12-31T14:23:09.686Z,19.00
2022-12-31T14:25:30.720Z,19.90
2022-12-31T14:27:49.418Z,20.50
2022-12-31T14:30:06.717Z,17.40
2022-12-31T14:32:52.477Z,19.50
2022-12-31T14:35:22.654Z,28.80
2022-12-31T14:37:46.575Z,19.50
2022-12-31T14:40:10.010Z,15.90
2022-12-31T14:42:35.161Z,15.80
2022-12-31T14:45:19.172Z,15.80
2022-12-31T14:47:44.966Z,16.60
2022-12-31T14:50:08.449Z,18.60
2022-12-31T14:52:35.114Z,15.00
2022-12-31T14:54:49.026Z,17.10
2022-12-31T14:57:13.000Z,13.60
2022-12-31T14:59:37.275Z,14.70
2022-12-31T15:01:53.909Z,16.80
2022-12-31T15:04:17.740Z,16.30
2022-12-31T15:06:55.383Z,21.90
2022-12-31T15:09:18.676Z,20.00
2022-12-31T15:11:41.667Z,20.90
2022-12-31T15:14:21.322Z,19.20
2022-12-31T15:16:46.737Z,19.60
2022-12-31T15:19:36.097Z,18.00
2022-12-31T15:22:04.515Z,13.10
2022-12-31T15:24:26.267Z,10.70
2022-12-31T15:26:41.033Z,8.80
2022-12-31T15:29:03.744Z,8.80
2022-12-31T15:31:24.329Z,14.90
2022-12-31T15:33:41.290Z,10.00
2022-12-31T15:35:57.352Z,11.90
2022-12-31T15:38:33.730Z,9.20
2022-12-31T15:40:52.771Z,10.50
2022-12-31T15:43:12.995Z,10.00
2022-12-31T15:45:35.260Z,21.60
2022-12-31T15:47:51.455Z,20.50
2022-12-31T15:50:09.136Z,18.20
2022-12-31T15:52:28.759Z,21.80
2022-12-31T15:54:45.872Z,14.60
2022-12-31T15:57:07.216Z,9.60
2022-12-31T15:59:24.240Z,11.90
2022-12-31T16:01:40.768Z,10.80
2022-12-31T16:03:58.380Z,8.60
2022-12-31T16:06:18.070Z,7.30
2022-12-31T16:08:35.637Z,10.40
2022-12-31T16:10:50.203Z,14.50
2022-12-31T16:13:06.368Z,21.90
2022-12-31T16:15:28.027Z,25.30
2022-12-31T16:17:43.170Z,22.30
2022-12-31T16:19:58.036Z,22.20
2022-12-31T16:22:18.093Z,28.70
2022-12-31T16:24:48.957Z,21.20
2022-12-31T16:27:12.709Z,17.90
2022-12-31T16:29:28.180Z,22.80
2022-12-31T16:31:41.778Z,22.90
2022-12-31T16:33:55.740Z,23.00
2022-12-31T16:36:10.412Z,19.30
2022-12-31T16:38:25.229Z,23.30
2022-12-31T16:40:38.533Z,19.40
2022-12-31T16:42:54.297Z,19.00
2022-12-31T16:45:28.961Z,21.90
2022-12-31T16:47:45.148Z,22.50
2022-12-31T16:50:05.224Z,23.70
2022-12-31T16:52:31.672Z,24.60
2022-12-31T16:54:48.026Z,24.70
2022-12-31T16:57:02.650Z,21.90
2022-12-31T16:59:24.004Z,26.00
2022-12-31T17:01:40.403Z,26.50
2022-12-31T17:03:57.294Z,21.20
2022-12-31T17:06:20.775Z,21.70
2022-12-31T17:08:43.581Z,20.40
2022-12-31T17:10:57.789Z,24.50
2022-12-31T17:13:29.569Z,25.60
2022-12-31T17:15:48.005Z,21.40
2022-12-31T17:18:05.817Z,21.80
2022-12-31T17:20:28.519Z,25.30
2022-12-31T17:25:02.815Z,24.70
2022-12-31T17:27:17.111Z,20.50
2022-12-31T17:29:31.127Z,23.70
2022-12-31T17:32:00.804Z,25.00
2022-12-31T17:34:27.265Z,27.20
2022-12-31T17:36:41.104Z,21.80
2022-12-31T17:38:54.722Z,26.00
2022-12-31T17:41:26.232Z,30.50
2022-12-31T17:43:41.537Z,27.60
2022-12-31T17:45:57.999Z,20.30
2022-12-31T17:48:14.109Z,22.60
2022-12-31T17:50:29.900Z,26.10
2022-12-31T17:52:43.415Z,21.10
2022-12-31T17:54:56.771Z,21.30
2022-12-31T17:57:10.610Z,23.80
2022-12-31T17:59:26.561Z,15.10
2022-12-31T18:01:40.220Z,17.80
2022-12-31T18:03:53.996Z,22.40
2022-12-31T18:06:12.931Z,18.40
2022-12-31T18:08:30.136Z,17.90
2022-12-31T18:10:45.635Z,20.10
2022-12-31T18:13:00.123Z,23.10
2022-12-31T18:15:17.543Z,22.10
2022-12-31T18:17:32.108Z,27.30
2022-12-31T18:20:04.359Z,24.80
2022-12-31T18:22:21.708Z,24.20
2022-12-31T18:24:35.218Z,23.90
2022-12-31T18:26:49.576Z,20.10
2022-12-31T18:29:05.249Z,29.40
2022-12-31T18:31:23.475Z,21.10
2022-12-31T18:33:37.569Z,18.70
2022-12-31T18:36:09.683Z,18.30
2022-12-31T18:38:25.041Z,24.20
2022-12-31T18:40:42.038Z,16.70
2022-12-31T18:42:58.459Z,19.50
2022-12-31T18:45:21.925Z,23.80
2022-12-31T18:47:37.841Z,18.20
2022-12-31T18:49:51.570Z,26.00
2022-12-31T18:52:04.932Z,24.60
2022-12-31T18:54:18.902Z,25.30
2022-12-31T18:56:33.085Z,20.00
2022-12-31T18:58:48.088Z,24.30
2022-12-31T19:01:02.027Z,23.90
2022-12-31T19:03:19.688Z,24.10
2022-12-31T19:05:34.744Z,9.10
2022-12-31T19:07:48.175Z,10.70
2022-12-31T19:10:02.391Z,6.10
2022-12-31T19:12:18.348Z,9.60
2022-12-31T19:14:32.510Z,6.40
2022-12-31T19:16:46.209Z,5.70
2022-12-31T19:19:03.868Z,4.70
2022-12-31T19:21:25.963Z,5.40
2022-12-31T19:23:39.868Z,3.90
2022-12-31T19:25:54.600Z,3.40
2022-12-31T19:28:10.078Z,4.40
2022-12-31T19:30:29.616Z,7.30
2022-12-31T19:32:43.130Z,10.40
2022-12-31T19:34:56.595Z,11.20
2022-12-31T19:37:10.308Z,10.70
2022-12-31T19:39:25.277Z,10.10
2022-12-31T19:41:39.804Z,9.20
2022-12-31T19:43:54.343Z,8.20
2022-12-31T19:46:09.829Z,12.10
2022-12-31T19:48:32.266Z,5.50
2022-12-31T19:50:50.347Z,8.00
2022-12-31T19:53:04.875Z,9.50
2022-12-31T19:55:21.518Z,6.10
2022-12-31T19:57:35.001Z,8.60
2022-12-31T19:59:48.602Z,6.00
2022-12-31T20:02:02.393Z,3.90
2022-12-31T20:04:15.804Z,4.40
2022-12-31T20:06:29.120Z,5.10
2022-12-31T20:08:44.514Z,4.40
2022-12-31T20:11:00.005Z,5.60
2022-12-31T20:13:13.541Z,5.90
2022-12-31T20:15:26.815Z,5.30
2022-12-31T20:17:40.304Z,5.20
2022-12-31T20:19:53.531Z,6.20
2022-12-31T20:22:06.862Z,6.70
2022-12-31T20:24:20.157Z,6.30
2022-12-31T20:26:33.527Z,6.60
2022-12-31T20:28:46.998Z,7.40
2022-12-31T20:31:00.801Z,6.60
2022-12-31T20:33:18.921Z,7.70
2022-12-31T20:35:32.523Z,9.00
2022-12-31T20:37:45.926Z,9.40
2022-12-31T20:39:59.401Z,11.50
2022-12-31T20:42:12.775Z,12.90
2022-12-31T20:44:25.988Z,13.60
2022-12-31T20:46:39.528Z,12.20
2022-12-31T20:48:54.184Z,8.00
2022-12-31T20:51:07.727Z,7.80
2022-12-31T20:53:20.972Z,7.10
2022-12-31T20:55:34.510Z,9.00
2022-12-31T20:57:47.842Z,4.80
2022-12-31T21:00:01.201Z,6.40
2022-12-31T21:02:21.916Z,6.00
2022-12-31T21:04:36.329Z,9.80
2022-12-31T21:06:50.054Z,10.10
2022-12-31T21:09:04.723Z,8.70
2022-12-31T21:11:34.705Z,10.30
2022-12-31T21:13:47.890Z,10.10
2022-12-31T21:16:01.612Z,13.60
2022-12-31T21:18:14.933Z,16.60
2022-12-31T21:20:28.116Z,14.00
2022-12-31T21:22:41.407Z,10.50
2022-12-31T21:24:54.862Z,9.80
2022-12-31T21:27:08.219Z,9.60
2022-12-31T21:29:21.572Z,8.80
2022-12-31T21:31:34.918Z,10.90
2022-12-31T21:33:50.528Z,10.80
2022-12-31T21:36:05.021Z,8.10
2022-12-31T21:38:18.348Z,7.20
2022-12-31T21:40:31.674Z,11.70
2022-12-31T21:42:44.892Z,7.80
2022-12-31T21:44:58.474Z,10.80
2022-12-31T21:47:38.629Z,12.40
2022-12-31T21:49:54.473Z,11.40
2022-12-31T21:52:24.406Z,7.20
2022-12-31T21:54:54.163Z,12.10
2022-12-31T21:57:09.092Z,10.80
2022-12-31T21:59:46.599Z,10.40
2022-12-31T22:02:16.765Z,10.30
2022-12-31T22:07:04.225Z,9.50
2022-12-31T22:09:17.626Z,9.20
2022-12-31T22:11:31.862Z,7.70
2022-12-31T22:13:46.105Z,8.70
2022-12-31T22:16:05.652Z,9.40
2022-12-31T22:18:21.357Z,14.50
2022-12-31T22:20:34.720Z,14.90
2022-12-31T22:22:47.901Z,14.40
2022-12-31T22:25:01.239Z,11.30
2022-12-31T22:27:29.570Z,11.00
2022-12-31T22:29:43.177Z,13.50
2022-12-31T22:32:00.975Z,12.20
2022-12-31T22:34:14.595Z,15.90
2022-12-31T22:36:28.279Z,16.10
2022-12-31T22:38:41.673Z,12.70
2022-12-31T22:40:55.331Z,15.00
2022-12-31T22:43:08.651Z,16.20
2022-12-31T22:45:22.149Z,19.70
2022-12-31T22:47:35.304Z,13.30
2022-12-31T22:49:48.587Z,11.50
2022-12-31T22:52:05.640Z,18.30
2022-12-31T22:54:21.914Z,17.20
2022-12-31T22:56:35.171Z,9.60
2022-12-31T22:58:49.127Z,7.40
2022-12-31T23:01:02.548Z,5.60
2022-12-31T23:03:15.713Z,5.50
2022-12-31T23:05:28.966Z,6.30
2022-12-31T23:07:42.576Z,3.70
2022-12-31T23:10:12.100Z,3.70
2022-12-31T23:12:25.410Z,9.90
2022-12-31T23:14:55.163Z,5.20
2022-12-31T23:17:31.380Z,4.10
2022-12-31T23:20:01.502Z,2.30
2022-12-31T23:22:30.911Z,2.60
2022-12-31T23:24:44.458Z,1.90
2022-12-31T23:26:58.659Z,2.90
2022-12-31T23:29:11.846Z,3.00
2022-12-31T23:31:27.144Z,2.30
2022-12-31T23:33:40.805Z,2.10
2022-12-31T23:35:54.114Z,2.20
2022-12-31T23:38:07.342Z,1.80
2022-12-31T23:40:22.060Z,2.10
2022-12-31T23:42:35.717Z,1.80
2022-12-31T23:44:49.002Z,3.20
2022-12-31T23:47:02.403Z,2.80
2022-12-31T23:49:15.832Z,2.60
2022-12-31T23:51:29.207Z,1.50
2022-12-31T23:53:43.530Z,3.10
2022-12-31T23:55:56.763Z,2.00
2022-12-31T23:58:09.995Z,2.20
